createdAt,value
2022-10-02T00:01:32.729Z,10.76
2022-10-02T00:04:01.586Z,10.70
2022-10-02T00:06:41.849Z,10.78
2022-10-02T00:09:14.801Z,10.83
2022-10-02T00:11:48.415Z,10.80
2022-10-02T00:14:21.610Z,10.76
2022-10-02T00:16:53.736Z,10.87
2022-10-02T00:19:20.459Z,10.74
2022-10-02T00:21:57.647Z,10.80
2022-10-02T00:24:29.350Z,10.84
2022-10-02T00:27:15.749Z,10.83
2022-10-02T00:30:03.230Z,10.75
2022-10-02T00:33:11.223Z,10.82
2022-10-02T00:36:04.142Z,10.91
2022-10-02T00:39:01.938Z,10.81
2022-10-02T00:41:49.750Z,10.84
2022-10-02T00:44:57.762Z,10.92
2022-10-02T00:48:04.166Z,10.87
2022-10-02T00:50:46.563Z,10.88
2022-10-02T00:53:40.931Z,10.88
2022-10-02T00:56:20.081Z,11.06
2022-10-02T00:59:03.288Z,10.98
2022-10-02T01:01:41.553Z,11.00
2022-10-02T01:04:15.746Z,10.97
2022-10-02T01:06:42.498Z,10.91
2022-10-02T01:09:09.168Z,11.03
2022-10-02T01:11:36.882Z,10.97
2022-10-02T01:14:04.775Z,10.99
2022-10-02T01:16:32.758Z,10.92
2022-10-02T01:18:59.449Z,10.93
2022-10-02T01:21:38.114Z,10.91
2022-10-02T01:24:20.208Z,10.91
2022-10-02T01:26:46.787Z,10.87
2022-10-02T01:29:14.126Z,10.81
2022-10-02T01:31:43.257Z,10.85
2022-10-02T01:34:10.211Z,10.87
2022-10-02T01:36:37.254Z,10.92
2022-10-02T01:39:04.830Z,10.97
2022-10-02T01:41:35.282Z,11.00
2022-10-02T01:44:02.759Z,10.98
2022-10-02T01:46:49.193Z,11.02
2022-10-02T01:49:36.561Z,10.90
2022-10-02T01:52:37.329Z,11.02
2022-10-02T01:55:33.377Z,11.07
2022-10-02T01:58:25.850Z,10.96
2022-10-02T02:01:10.688Z,10.92
2022-10-02T02:03:46.472Z,10.84
2022-10-02T02:06:25.569Z,10.81
2022-10-02T02:09:07.660Z,10.86
2022-10-02T02:11:39.606Z,10.86
2022-10-02T02:14:17.366Z,10.84
2022-10-02T02:16:47.889Z,10.88
2022-10-02T02:19:24.991Z,10.69
2022-10-02T02:21:58.924Z,10.56
2022-10-02T02:25:02.584Z,10.56
2022-10-02T02:27:34.885Z,10.51
2022-10-02T02:30:06.812Z,10.59
2022-10-02T02:35:34.186Z,10.59
2022-10-02T02:38:05.651Z,10.70
2022-10-02T02:40:37.266Z,10.76
2022-10-02T02:43:09.069Z,10.72
2022-10-02T02:45:40.718Z,10.76
2022-10-02T02:48:53.952Z,10.83
2022-10-02T02:51:36.475Z,10.89
2022-10-02T02:54:08.980Z,10.87
2022-10-02T02:56:37.659Z,10.87
2022-10-02T02:59:11.050Z,10.94
2022-10-02T03:01:37.794Z,10.95
2022-10-02T03:04:04.563Z,10.99
2022-10-02T03:06:37.166Z,11.01
2022-10-02T03:09:13.753Z,11.07
2022-10-02T03:11:52.554Z,11.14
2022-10-02T03:14:46.931Z,11.12
2022-10-02T03:17:32.833Z,11.17
2022-10-02T03:20:17.646Z,11.23
2022-10-02T03:22:50.130Z,11.26
2022-10-02T03:25:26.358Z,11.24
2022-10-02T03:27:56.496Z,11.29
2022-10-02T03:30:24.546Z,11.34
2022-10-02T03:32:53.844Z,11.44
2022-10-02T03:35:22.730Z,11.50
2022-10-02T03:37:53.046Z,11.44
2022-10-02T03:40:24.655Z,11.53
2022-10-02T03:42:52.089Z,11.50
2022-10-02T03:45:39.332Z,11.48
2022-10-02T03:48:06.349Z,11.56
2022-10-02T03:50:36.190Z,11.60
2022-10-02T03:53:12.121Z,11.66
2022-10-02T03:55:40.805Z,11.68
2022-10-02T03:58:15.068Z,11.59
2022-10-02T04:01:05.871Z,11.73
2022-10-02T04:03:40.212Z,11.69
2022-10-02T04:06:15.649Z,11.62
2022-10-02T04:08:56.200Z,11.81
2022-10-02T04:11:28.279Z,11.72
2022-10-02T04:13:59.020Z,11.75
2022-10-02T04:16:33.784Z,11.77
2022-10-02T04:19:24.146Z,11.64
2022-10-02T04:21:59.718Z,11.55
2022-10-02T04:24:39.223Z,11.46
2022-10-02T04:27:25.031Z,11.45
2022-10-02T04:30:05.796Z,11.54
2022-10-02T04:32:36.971Z,11.41
2022-10-02T04:35:15.765Z,11.48
2022-10-02T04:38:07.279Z,11.38
2022-10-02T04:41:02.591Z,11.31
2022-10-02T04:43:44.381Z,11.25
2022-10-02T04:46:43.375Z,11.17
2022-10-02T04:49:40.292Z,11.06
2022-10-02T04:52:28.547Z,11.07
2022-10-02T04:55:16.821Z,11.07
2022-10-02T04:57:55.333Z,10.99
2022-10-02T05:00:23.834Z,10.95
2022-10-02T05:03:23.974Z,10.98
2022-10-02T05:06:13.637Z,10.93
2022-10-02T05:09:03.231Z,10.88
2022-10-02T05:11:58.952Z,10.93
2022-10-02T05:14:56.732Z,10.79
2022-10-02T05:17:26.278Z,10.81
2022-10-02T05:20:18.706Z,10.83
2022-10-02T05:23:03.568Z,10.82
2022-10-02T05:26:05.614Z,10.89
2022-10-02T05:28:53.920Z,11.03
2022-10-02T05:31:58.247Z,11.18
2022-10-02T05:34:38.220Z,11.29
2022-10-02T05:37:36.523Z,11.34
2022-10-02T05:40:03.016Z,11.45
2022-10-02T05:42:51.378Z,11.44
2022-10-02T05:45:34.743Z,11.57
2022-10-02T05:48:08.275Z,11.60
2022-10-02T05:50:38.019Z,11.60
2022-10-02T05:53:31.909Z,11.61
2022-10-02T05:56:09.274Z,11.74
2022-10-02T05:58:46.249Z,11.70
2022-10-02T06:01:17.777Z,11.71
2022-10-02T06:04:17.283Z,11.81
2022-10-02T06:06:49.095Z,11.77
2022-10-02T06:09:20.000Z,11.82
2022-10-02T06:12:01.860Z,11.83
2022-10-02T06:14:40.770Z,12.04
2022-10-02T06:17:16.468Z,12.07
2022-10-02T06:20:03.623Z,12.19
2022-10-02T06:22:46.552Z,12.26
2022-10-02T06:25:25.046Z,12.36
2022-10-02T06:28:02.988Z,12.33
2022-10-02T06:30:32.527Z,12.34
2022-10-02T06:33:04.582Z,12.47
2022-10-02T06:35:43.091Z,12.55
2022-10-02T06:38:25.279Z,12.51
2022-10-02T06:41:04.176Z,12.65
2022-10-02T06:43:40.593Z,12.88
2022-10-02T06:46:27.804Z,13.11
2022-10-02T06:49:00.410Z,13.18
2022-10-02T06:51:56.359Z,13.17
2022-10-02T06:54:26.150Z,12.98
2022-10-02T06:57:14.630Z,12.90
2022-10-02T07:00:03.987Z,13.01
2022-10-02T07:02:56.014Z,13.06
2022-10-02T07:05:45.575Z,13.29
2022-10-02T07:08:22.141Z,13.66
2022-10-02T07:10:57.654Z,13.86
2022-10-02T07:13:42.510Z,14.12
2022-10-02T07:16:43.249Z,14.42
2022-10-02T07:19:32.985Z,14.59
2022-10-02T07:22:45.946Z,14.59
2022-10-02T07:25:19.079Z,14.39
2022-10-02T07:28:01.117Z,14.13
2022-10-02T07:30:38.282Z,14.06
2022-10-02T07:33:07.788Z,14.19
2022-10-02T07:36:12.822Z,14.23
2022-10-02T07:38:45.277Z,14.21
2022-10-02T07:41:33.376Z,14.20
2022-10-02T07:44:12.204Z,14.16
2022-10-02T07:46:56.656Z,14.01
2022-10-02T07:49:33.316Z,14.00
2022-10-02T07:52:22.377Z,14.11
2022-10-02T07:54:56.561Z,14.02
2022-10-02T07:57:38.173Z,14.05
2022-10-02T08:00:11.741Z,14.11
2022-10-02T08:02:47.006Z,14.10
2022-10-02T08:05:18.522Z,14.02
2022-10-02T08:07:50.865Z,14.02
2022-10-02T08:10:21.962Z,14.02
2022-10-02T08:12:56.557Z,13.96
2022-10-02T08:15:25.382Z,14.05
2022-10-02T08:18:16.474Z,14.08
2022-10-02T08:20:47.937Z,14.13
2022-10-02T08:23:34.159Z,14.02
2022-10-02T08:26:09.821Z,14.01
2022-10-02T08:29:05.520Z,14.13
2022-10-02T08:31:33.148Z,14.14
2022-10-02T08:34:13.982Z,14.08
2022-10-02T08:37:02.028Z,14.14
2022-10-02T08:39:42.097Z,14.15
2022-10-02T08:42:47.894Z,14.26
2022-10-02T08:45:52.182Z,14.34
2022-10-02T08:48:55.480Z,14.30
2022-10-02T08:51:54.443Z,14.26
2022-10-02T08:54:47.043Z,14.28
2022-10-02T08:57:34.678Z,14.27
2022-10-02T09:00:22.229Z,14.34
2022-10-02T09:03:13.277Z,14.53
2022-10-02T09:05:59.332Z,14.56
2022-10-02T09:08:45.082Z,14.65
2022-10-02T09:11:19.486Z,14.71
2022-10-02T09:14:17.601Z,14.76
2022-10-02T09:17:06.195Z,14.77
2022-10-02T09:19:42.094Z,14.90
2022-10-02T09:22:48.135Z,14.97
2022-10-02T09:25:14.590Z,15.02
2022-10-02T09:28:17.779Z,14.94
2022-10-02T09:31:03.720Z,15.04
2022-10-02T09:34:04.396Z,15.09
2022-10-02T09:36:49.385Z,15.24
2022-10-02T09:39:34.186Z,15.23
2022-10-02T09:42:31.753Z,15.22
2022-10-02T09:45:22.696Z,15.43
2022-10-02T09:48:16.314Z,15.51
2022-10-02T09:51:13.449Z,15.67
2022-10-02T09:53:52.258Z,15.78
2022-10-02T09:56:37.421Z,15.68
2022-10-02T09:59:29.156Z,15.57
2022-10-02T10:02:14.888Z,15.43
2022-10-02T10:05:10.827Z,15.49
2022-10-02T10:07:55.950Z,15.29
2022-10-02T10:10:44.456Z,15.38
2022-10-02T10:13:32.867Z,15.43
2022-10-02T10:16:14.861Z,15.48
2022-10-02T10:18:50.610Z,15.53
2022-10-02T10:21:45.058Z,15.46
2022-10-02T10:24:41.133Z,15.54
2022-10-02T10:27:24.237Z,15.47
2022-10-02T10:30:00.140Z,15.47
2022-10-02T10:32:48.264Z,15.21
2022-10-02T10:35:36.678Z,15.16
2022-10-02T10:38:41.000Z,15.06
2022-10-02T10:41:28.597Z,15.01
2022-10-02T10:44:15.503Z,14.92
2022-10-02T10:47:31.206Z,14.98
2022-10-02T10:50:19.382Z,15.17
2022-10-02T10:52:56.482Z,15.35
2022-10-02T10:55:46.434Z,15.42
2022-10-02T10:58:30.165Z,15.65
2022-10-02T11:01:13.468Z,15.73
2022-10-02T11:04:01.269Z,15.86
2022-10-02T11:06:36.664Z,15.89
2022-10-02T11:09:13.946Z,16.01
2022-10-02T11:11:49.230Z,16.04
2022-10-02T11:14:22.915Z,16.05
2022-10-02T11:17:08.295Z,15.92
2022-10-02T11:19:56.457Z,15.94
2022-10-02T11:22:39.502Z,15.81
2022-10-02T11:25:12.910Z,15.67
2022-10-02T11:28:28.673Z,15.66
2022-10-02T11:31:11.800Z,15.70
2022-10-02T11:33:57.693Z,15.56
2022-10-02T11:36:45.773Z,15.52
2022-10-02T11:39:20.648Z,15.53
2022-10-02T11:42:16.390Z,15.34
2022-10-02T11:44:58.400Z,15.34
2022-10-02T11:47:53.008Z,15.49
2022-10-02T11:50:40.920Z,15.59
2022-10-02T11:53:20.765Z,15.59
2022-10-02T11:56:24.902Z,15.88
2022-10-02T11:59:07.199Z,16.04
2022-10-02T12:01:53.420Z,16.23
2022-10-02T12:04:42.339Z,16.44
2022-10-02T12:07:48.575Z,16.47
2022-10-02T12:10:52.987Z,16.07
2022-10-02T12:13:45.381Z,15.81
2022-10-02T12:16:39.446Z,15.28
2022-10-02T12:19:15.284Z,14.95
2022-10-02T12:22:44.327Z,14.89
2022-10-02T12:25:38.487Z,15.07
2022-10-02T12:28:23.113Z,15.24
2022-10-02T12:31:15.752Z,15.47
2022-10-02T12:34:14.203Z,15.46
2022-10-02T12:36:58.385Z,15.43
2022-10-02T12:39:24.904Z,15.37
2022-10-02T12:42:09.277Z,15.54
2022-10-02T12:44:49.388Z,15.46
2022-10-02T12:47:22.308Z,15.48
2022-10-02T12:50:29.940Z,15.40
2022-10-02T12:53:22.333Z,15.37
2022-10-02T12:56:26.095Z,15.38
2022-10-02T12:59:01.789Z,15.27
2022-10-02T13:01:47.122Z,15.03
2022-10-02T13:04:32.090Z,14.64
2022-10-02T13:07:31.081Z,14.48
2022-10-02T13:10:16.238Z,14.54
2022-10-02T13:12:57.206Z,14.60
2022-10-02T13:15:38.208Z,14.78
2022-10-02T13:18:17.238Z,14.83
2022-10-02T13:21:04.224Z,14.89
2022-10-02T13:23:46.955Z,15.00
2022-10-02T13:26:13.654Z,15.03
2022-10-02T13:28:52.923Z,14.99
2022-10-02T13:31:39.050Z,15.13
2022-10-02T13:34:40.522Z,15.29
2022-10-02T13:37:22.424Z,15.25
2022-10-02T13:40:03.852Z,15.32
2022-10-02T13:42:54.385Z,15.38
2022-10-02T13:45:27.290Z,15.56
2022-10-02T13:48:06.476Z,15.65
2022-10-02T13:50:57.550Z,15.70
2022-10-02T13:53:30.786Z,15.63
2022-10-02T13:56:20.891Z,15.74
2022-10-02T13:59:13.605Z,15.73
2022-10-02T14:02:09.262Z,15.63
2022-10-02T14:04:36.005Z,15.50
2022-10-02T14:07:18.930Z,15.40
2022-10-02T14:10:10.898Z,15.51
2022-10-02T14:12:50.075Z,15.54
2022-10-02T14:15:47.748Z,15.60
2022-10-02T14:18:26.607Z,15.52
2022-10-02T14:21:12.077Z,15.52
2022-10-02T14:24:10.983Z,15.54
2022-10-02T14:27:05.814Z,15.45
2022-10-02T14:29:49.146Z,15.38
2022-10-02T14:32:34.863Z,15.35
2022-10-02T14:35:38.598Z,15.30
2022-10-02T14:38:27.207Z,15.26
2022-10-02T14:40:55.848Z,15.22
2022-10-02T14:43:40.523Z,15.18
2022-10-02T14:46:38.197Z,15.08
2022-10-02T14:49:39.838Z,15.07
2022-10-02T14:52:42.757Z,14.94
2022-10-02T14:55:27.227Z,14.95
2022-10-02T14:58:09.202Z,14.89
2022-10-02T15:01:14.206Z,14.85
2022-10-02T15:03:53.524Z,14.96
2022-10-02T15:06:31.756Z,14.86
2022-10-02T15:09:13.233Z,14.79
2022-10-02T15:11:42.638Z,14.64
2022-10-02T15:14:42.794Z,14.68
2022-10-02T15:17:35.966Z,14.54
2022-10-02T15:20:11.858Z,14.51
2022-10-02T15:22:57.177Z,14.43
2022-10-02T15:25:48.683Z,14.34
2022-10-02T15:28:37.400Z,14.31
2022-10-02T15:31:18.072Z,14.23
2022-10-02T15:34:11.393Z,14.31
2022-10-02T15:36:56.340Z,14.26
2022-10-02T15:39:28.906Z,14.22
2022-10-02T15:42:05.978Z,14.19
2022-10-02T15:44:51.268Z,14.14
2022-10-02T15:47:23.978Z,14.20
2022-10-02T15:50:04.023Z,14.11
2022-10-02T15:52:52.624Z,14.08
2022-10-02T15:55:42.566Z,14.06
2022-10-02T15:58:21.337Z,13.98
2022-10-02T16:01:00.991Z,13.98
2022-10-02T16:03:34.114Z,13.87
2022-10-02T16:06:12.816Z,13.81
2022-10-02T16:09:03.870Z,13.80
2022-10-02T16:12:08.735Z,13.87
2022-10-02T16:14:53.587Z,13.77
2022-10-02T16:17:34.729Z,13.68
2022-10-02T16:20:28.270Z,13.61
2022-10-02T16:23:15.913Z,13.53
2022-10-02T16:25:58.459Z,13.55
2022-10-02T16:28:39.527Z,13.56
2022-10-02T16:31:34.018Z,13.45
2022-10-02T16:34:11.234Z,13.40
2022-10-02T16:36:52.379Z,13.42
2022-10-02T16:39:37.688Z,13.38
2022-10-02T16:42:35.203Z,13.44
2022-10-02T16:45:39.518Z,13.45
2022-10-02T16:48:21.687Z,13.47
2022-10-02T16:51:10.127Z,13.49
2022-10-02T16:54:02.604Z,13.53
2022-10-02T16:56:34.045Z,13.64
2022-10-02T16:59:12.228Z,13.64
2022-10-02T17:02:06.041Z,13.57
2022-10-02T17:04:52.470Z,13.68
2022-10-02T17:07:42.053Z,13.62
2022-10-02T17:10:19.860Z,13.60
2022-10-02T17:13:25.901Z,13.66
2022-10-02T17:15:55.956Z,13.60
2022-10-02T17:18:45.211Z,13.62
2022-10-02T17:21:22.392Z,13.50
2022-10-02T17:24:13.869Z,13.51
2022-10-02T17:26:55.686Z,13.43
2022-10-02T17:29:39.708Z,13.35
2022-10-02T17:32:08.978Z,13.34
2022-10-02T17:34:46.982Z,13.20
2022-10-02T17:37:13.463Z,13.16
2022-10-02T17:39:57.670Z,13.05
2022-10-02T17:42:47.955Z,12.80
2022-10-02T17:45:26.346Z,12.81
2022-10-02T17:48:02.312Z,12.73
2022-10-02T17:50:47.164Z,12.66
2022-10-02T17:54:02.212Z,12.66
2022-10-02T17:56:34.597Z,12.64
2022-10-02T17:59:17.175Z,12.63
2022-10-02T18:02:01.319Z,12.65
2022-10-02T18:04:30.735Z,12.67
2022-10-02T18:07:39.911Z,12.63
2022-10-02T18:10:32.339Z,12.59
2022-10-02T18:13:20.053Z,12.61
2022-10-02T18:16:02.404Z,12.55
2022-10-02T18:19:01.360Z,12.50
2022-10-02T18:21:41.960Z,12.46
2022-10-02T18:24:46.154Z,12.41
2022-10-02T18:27:31.751Z,12.31
2022-10-02T18:30:20.794Z,12.42
2022-10-02T18:33:06.167Z,12.24
2022-10-02T18:35:53.191Z,12.25
2022-10-02T18:38:33.338Z,12.13
2022-10-02T18:41:24.937Z,12.04
2022-10-02T18:43:54.472Z,11.99
2022-10-02T18:46:32.924Z,11.93
2022-10-02T18:49:14.945Z,11.86
2022-10-02T18:52:16.831Z,11.72
2022-10-02T18:54:58.576Z,11.63
2022-10-02T18:57:56.036Z,11.64
2022-10-02T19:00:26.186Z,11.70
2022-10-02T19:03:12.231Z,11.79
2022-10-02T19:05:51.064Z,11.74
2022-10-02T19:08:55.373Z,11.82
2022-10-02T19:11:28.554Z,11.70
2022-10-02T19:13:55.471Z,11.73
2022-10-02T19:16:25.928Z,11.79
2022-10-02T19:19:20.996Z,11.71
2022-10-02T19:21:48.470Z,11.66
2022-10-02T19:24:24.381Z,11.68
2022-10-02T19:26:57.191Z,11.74
2022-10-02T19:29:46.451Z,11.72
2022-10-02T19:32:21.273Z,11.62
2022-10-02T19:35:02.536Z,11.55
2022-10-02T19:37:31.707Z,11.52
2022-10-02T19:40:01.758Z,11.51
2022-10-02T19:42:32.859Z,11.53
2022-10-02T19:45:25.482Z,11.50
2022-10-02T19:48:07.367Z,11.50
2022-10-02T19:50:44.470Z,11.47
2022-10-02T19:53:24.530Z,11.47
2022-10-02T19:55:57.280Z,11.49
2022-10-02T19:58:41.747Z,11.37
2022-10-02T20:01:18.158Z,11.35
2022-10-02T20:03:46.126Z,11.34
2022-10-02T20:06:18.508Z,11.31
2022-10-02T20:08:53.978Z,11.31
2022-10-02T20:11:38.006Z,11.19
2022-10-02T20:14:26.032Z,11.15
2022-10-02T20:17:12.885Z,11.15
2022-10-02T20:19:52.881Z,10.99
2022-10-02T20:22:31.944Z,10.89
2022-10-02T20:25:14.325Z,10.80
2022-10-02T20:27:52.015Z,10.85
2022-10-02T20:30:21.322Z,10.80
2022-10-02T20:33:13.801Z,10.83
2022-10-02T20:35:46.699Z,10.79
2022-10-02T20:38:24.077Z,10.73
2022-10-02T20:40:54.713Z,10.68
2022-10-02T20:43:28.886Z,10.68
2022-10-02T20:46:28.177Z,10.71
2022-10-02T20:49:13.632Z,10.74
2022-10-02T20:51:52.900Z,10.71
2022-10-02T20:54:44.662Z,10.75
2022-10-02T20:57:49.287Z,10.79
2022-10-02T21:00:19.768Z,10.79
2022-10-02T21:03:14.219Z,10.73
2022-10-02T21:05:57.614Z,10.73
2022-10-02T21:08:54.213Z,10.76
2022-10-02T21:11:50.804Z,10.83
2022-10-02T21:14:33.882Z,10.81
2022-10-02T21:17:23.878Z,10.77
2022-10-02T21:20:53.576Z,10.89
2022-10-02T21:23:38.748Z,10.88
2022-10-02T21:26:49.507Z,10.84
2022-10-02T21:29:26.469Z,10.84
2022-10-02T21:32:10.414Z,10.86
2022-10-02T21:35:07.803Z,10.81
2022-10-02T21:38:01.547Z,10.86
2022-10-02T21:40:58.946Z,10.90
2022-10-02T21:43:34.455Z,10.90
2022-10-02T21:46:04.862Z,10.91
2022-10-02T21:48:40.935Z,10.83
2022-10-02T21:51:27.032Z,10.87
2022-10-02T21:54:30.973Z,10.85
2022-10-02T21:57:18.795Z,10.76
2022-10-02T22:00:13.650Z,10.78
2022-10-02T22:03:00.200Z,10.73
2022-10-02T22:06:05.576Z,10.88
2022-10-02T22:08:54.976Z,10.90
2022-10-02T22:11:50.912Z,10.79
2022-10-02T22:14:29.678Z,10.86
2022-10-02T22:17:08.408Z,10.82
2022-10-02T22:20:09.084Z,10.70
2022-10-02T22:22:54.604Z,10.73
2022-10-02T22:25:32.996Z,10.74
2022-10-02T22:28:21.430Z,10.73
2022-10-02T22:30:57.228Z,10.69
2022-10-02T22:33:44.328Z,10.66
2022-10-02T22:36:13.937Z,10.64
2022-10-02T22:38:51.741Z,10.63
2022-10-02T22:41:31.020Z,10.63
2022-10-02T22:44:06.882Z,10.53
2022-10-02T22:46:52.202Z,10.53
2022-10-02T22:49:37.627Z,10.46
2022-10-02T22:52:34.363Z,10.54
2022-10-02T22:55:13.114Z,10.45
2022-10-02T22:58:05.770Z,10.41
2022-10-02T23:00:49.265Z,10.36
2022-10-02T23:03:24.838Z,10.25
2022-10-02T23:06:01.691Z,10.12
2022-10-02T23:08:39.158Z,10.00
2022-10-02T23:11:21.275Z,9.93
2022-10-02T23:13:54.649Z,9.86
2022-10-02T23:16:45.161Z,9.78
2022-10-02T23:19:28.269Z,9.67
2022-10-02T23:21:58.081Z,9.65
2022-10-02T23:24:24.665Z,9.60
2022-10-02T23:26:54.898Z,9.60
2022-10-02T23:29:24.541Z,9.56
2022-10-02T23:32:04.923Z,9.60
2022-10-02T23:34:49.041Z,9.64
2022-10-02T23:37:34.115Z,9.64
2022-10-02T23:40:48.314Z,9.65
2022-10-02T23:43:24.891Z,9.59
2022-10-02T23:46:02.025Z,9.57
2022-10-02T23:48:31.426Z,9.58
2022-10-02T23:51:32.320Z,9.53
2022-10-02T23:54:20.758Z,9.50
2022-10-02T23:57:14.360Z,9.52
